Time;durP1;ratioP1;P1;durP2;ratioP2;P2;SDS_P1;SDS_P2;PMS_P1;PMS_P2;Temp;Humidity;BMP_temperature;BMP_pressure;BME280_temperature;BME280_humidity;BME280_pressure;Samples;Min_cycle;Max_cycle;Signal;HPM_P1;HPM_P2
2023/11/23 00:02:19;;;;;;;22.20;13.00;;;6.80;99.90;;;;;;4992163;28;20108;-84
2023/11/23 00:04:45;;;;;;;22.58;13.73;;;6.90;99.90;;;;;;5000612;28;20033;-84
2023/11/23 00:07:11;;;;;;;20.77;13.10;;;6.90;99.90;;;;;;4991331;28;20030;-85
2023/11/23 00:09:37;;;;;;;22.60;12.63;;;6.90;99.90;;;;;;5007719;28;20037;-84
2023/11/23 00:12:03;;;;;;;22.85;12.52;;;7.00;99.90;;;;;;5008378;28;20022;-82
2023/11/23 00:14:32;;;;;;;19.35;11.35;;;7.00;99.90;;;;;;4983681;28;20029;-82
2023/11/23 00:16:57;;;;;;;21.48;11.40;;;7.00;99.90;;;;;;5006754;28;20023;-84
2023/11/23 00:19:23;;;;;;;21.20;14.45;;;7.00;99.90;;;;;;5001594;28;20479;-84
2023/11/23 00:21:49;;;;;;;27.00;15.65;;;7.10;99.90;;;;;;4990255;28;20124;-82
2023/11/23 00:24:17;;;;;;;25.33;15.57;;;7.10;99.90;;;;;;5002075;28;20474;-82
2023/11/23 00:26:43;;;;;;;22.92;13.75;;;7.20;99.90;;;;;;5000877;28;20105;-83
2023/11/23 00:29:10;;;;;;;21.33;12.48;;;7.10;99.90;;;;;;4990589;28;20031;-83
2023/11/23 00:31:36;;;;;;;21.75;13.30;;;7.10;99.90;;;;;;4998684;28;20030;-83
2023/11/23 00:34:06;;;;;;;21.15;11.68;;;7.20;99.90;;;;;;4998704;28;20030;-83
2023/11/23 00:36:38;;;;;;;22.25;15.10;;;7.10;99.90;;;;;;4986516;28;20046;-82
2023/11/23 00:39:05;;;;;;;26.60;15.38;;;7.20;99.90;;;;;;5016960;28;20045;-83
2023/11/23 00:41:30;;;;;;;21.20;13.00;;;7.20;99.90;;;;;;5005652;28;20474;-84
2023/11/23 00:43:57;;;;;;;24.60;15.30;;;7.20;99.90;;;;;;4999551;28;20056;-83
2023/11/23 00:46:22;;;;;;;24.75;15.02;;;7.20;99.90;;;;;;4986342;28;20026;-86
2023/11/23 00:48:48;;;;;;;21.83;13.00;;;7.20;99.90;;;;;;5016428;28;20036;-83
2023/11/23 00:51:16;;;;;;;27.13;15.73;;;7.20;99.90;;;;;;4989765;28;20251;-82
2023/11/23 00:53:42;;;;;;;25.88;16.42;;;7.30;99.90;;;;;;4999013;28;20062;-82
2023/11/23 00:56:08;;;;;;;23.48;14.85;;;7.30;99.90;;;;;;5005758;28;20084;-85
2023/11/23 00:58:33;;;;;;;21.70;14.80;;;7.30;99.90;;;;;;5000514;28;20042;-85
2023/11/23 01:01:00;;;;;;;25.75;16.05;;;7.30;99.90;;;;;;5008129;28;20072;-82
2023/11/23 01:03:26;;;;;;;23.75;15.20;;;7.30;99.90;;;;;;5007409;28;20120;-82
2023/11/23 01:05:52;;;;;;;24.55;15.82;;;7.30;99.90;;;;;;5001309;28;20489;-86
2023/11/23 01:08:17;;;;;;;28.63;19.73;;;7.40;99.90;;;;;;4991679;28;20033;-83
2023/11/23 01:10:43;;;;;;;24.92;15.45;;;7.40;99.90;;;;;;4990126;28;20030;-82
2023/11/23 01:13:09;;;;;;;22.50;14.85;;;7.40;99.90;;;;;;4999710;28;20026;-85
2023/11/23 01:15:35;;;;;;;24.27;15.90;;;7.40;99.90;;;;;;5001942;28;20036;-83
2023/11/23 01:18:01;;;;;;;28.15;18.63;;;7.40;99.90;;;;;;5005198;28;20042;-83
2023/11/23 01:20:26;;;;;;;23.65;14.63;;;7.50;99.90;;;;;;4989358;28;20172;-83
2023/11/23 01:22:52;;;;;;;26.38;15.63;;;7.50;99.90;;;;;;5003536;28;20311;-85
2023/11/23 01:25:18;;;;;;;31.55;19.77;;;7.60;99.90;;;;;;4988315;28;20080;-85
2023/11/23 01:27:44;;;;;;;29.92;19.60;;;7.60;99.90;;;;;;4996771;28;20026;-82
2023/11/23 01:30:10;;;;;;;31.35;21.45;;;7.60;99.90;;;;;;5004924;28;20036;-83
2023/11/23 01:32:36;;;;;;;36.08;21.63;;;7.60;99.90;;;;;;5013059;28;20034;-85
2023/11/23 01:35:02;;;;;;;37.78;23.48;;;7.70;99.90;;;;;;4996910;28;20501;-84
2023/11/23 01:37:28;;;;;;;27.83;19.73;;;7.70;99.90;;;;;;5005607;28;20026;-85
2023/11/23 01:39:54;;;;;;;37.45;24.27;;;7.70;99.90;;;;;;5001387;28;20441;-83
2023/11/23 01:42:20;;;;;;;33.25;20.85;;;7.70;99.90;;;;;;4996094;28;20026;-83
2023/11/23 01:44:45;;;;;;;36.33;23.30;;;7.70;99.90;;;;;;5005518;28;20064;-88
2023/11/23 01:47:13;;;;;;;31.52;20.58;;;7.80;99.90;;;;;;5001315;28;20030;-82
2023/11/23 01:49:45;;;;;;;33.00;21.38;;;7.80;99.90;;;;;;5003976;28;20092;-82
2023/11/23 01:52:11;;;;;;;31.08;21.63;;;7.80;99.90;;;;;;5017111;28;20034;-81
2023/11/23 01:54:37;;;;;;;35.40;22.33;;;7.80;99.90;;;;;;5006594;28;20482;-82
2023/11/23 01:57:04;;;;;;;42.20;25.33;;;7.80;99.90;;;;;;4998683;28;20030;-81
2023/11/23 01:59:31;;;;;;;36.25;23.42;;;7.90;99.90;;;;;;5012391;28;20034;-84
2023/11/23 02:01:57;;;;;;;31.23;19.98;;;7.90;99.90;;;;;;4988225;28;20026;-80
2023/11/23 02:04:23;;;;;;;28.52;19.45;;;7.80;99.90;;;;;;5006400;28;20033;-81
2023/11/23 02:06:50;;;;;;;38.05;24.60;;;7.80;99.90;;;;;;4990151;28;20104;-81
2023/11/23 02:09:17;;;;;;;32.28;22.40;;;8.00;99.90;;;;;;5004676;28;20048;-81
2023/11/23 02:11:43;;;;;;;32.53;21.88;;;7.90;99.90;;;;;;5003687;28;20466;-80
2023/11/23 02:14:09;;;;;;;28.02;18.00;;;7.90;99.90;;;;;;4996854;28;20033;-80
2023/11/23 02:16:37;;;;;;;32.05;20.60;;;7.90;99.90;;;;;;5005900;28;20053;-81
2023/11/23 02:19:04;;;;;;;33.70;22.55;;;8.00;99.90;;;;;;4997940;28;20446;-80
2023/11/23 02:21:30;;;;;;;36.38;24.10;;;8.00;99.90;;;;;;4995454;28;20037;-81
2023/11/23 02:23:56;;;;;;;27.83;19.38;;;8.00;99.90;;;;;;4997385;28;20042;-81
2023/11/23 02:26:22;;;;;;;25.23;17.70;;;8.00;99.90;;;;;;5012986;28;20026;-83
2023/11/23 02:28:47;;;;;;;27.98;18.20;;;8.00;99.90;;;;;;4997838;28;20041;-81
2023/11/23 02:31:13;;;;;;;24.70;16.67;;;8.00;99.90;;;;;;5006526;28;20042;-82
2023/11/23 02:33:39;;;;;;;34.47;22.60;;;8.00;99.90;;;;;;4998261;28;20387;-84
2023/11/23 02:36:05;;;;;;;27.60;19.23;;;8.10;99.90;;;;;;4995109;28;20112;-81
2023/11/23 02:38:31;;;;;;;33.28;23.02;;;8.10;99.90;;;;;;4993421;28;20029;-82
2023/11/23 02:41:00;;;;;;;32.33;20.83;;;8.20;99.90;;;;;;4996645;28;20030;-82
2023/11/23 02:43:26;;;;;;;30.75;20.42;;;8.20;99.90;;;;;;4984283;28;20050;-82
2023/11/23 02:45:54;;;;;;;34.38;23.02;;;8.20;99.90;;;;;;4966263;28;20708;-81
2023/11/23 02:48:20;;;;;;;31.70;22.92;;;8.20;99.90;;;;;;4984064;28;20039;-80
2023/11/23 02:50:45;;;;;;;34.08;22.73;;;8.30;99.90;;;;;;4982094;28;20034;-84
2023/11/23 02:53:27;;;;;;;28.83;21.02;;;8.30;99.90;;;;;;4978654;28;20031;-81
2023/11/23 02:55:53;;;;;;;30.35;21.27;;;8.30;99.90;;;;;;4981893;28;20498;-84
2023/11/23 02:58:19;;;;;;;35.08;23.83;;;8.40;99.90;;;;;;4979106;28;20022;-84
2023/11/23 03:00:45;;;;;;;33.72;24.88;;;8.40;99.90;;;;;;4982601;28;20034;-81
2023/11/23 03:03:12;;;;;;;39.67;26.23;;;8.40;99.90;;;;;;4980833;28;20100;-86
2023/11/23 03:05:40;;;;;;;41.05;24.67;;;8.40;99.90;;;;;;4989928;28;20394;-84
2023/11/23 03:08:06;;;;;;;36.28;26.98;;;8.50;99.90;;;;;;4979180;28;20035;-85
2023/11/23 03:10:34;;;;;;;37.83;24.90;;;8.60;99.90;;;;;;4982052;28;20034;-84
2023/11/23 03:13:00;;;;;;;32.47;21.75;;;8.50;99.90;;;;;;4979935;28;20370;-83
2023/11/23 03:15:26;;;;;;;33.35;23.90;;;8.60;99.90;;;;;;4984310;28;20061;-84
2023/11/23 03:17:52;;;;;;;34.95;24.52;;;8.60;99.90;;;;;;4989149;28;20038;-83
2023/11/23 03:20:18;;;;;;;38.60;24.83;;;8.60;99.90;;;;;;4970702;28;20056;-84
2023/11/23 03:22:43;;;;;;;35.03;21.90;;;8.60;99.90;;;;;;4981842;28;20058;-84
2023/11/23 03:25:10;;;;;;;32.05;21.23;;;8.60;99.90;;;;;;4971764;28;20542;-85
2023/11/23 03:27:38;;;;;;;27.98;20.27;;;8.60;99.90;;;;;;4983149;28;20038;-81
2023/11/23 03:30:05;;;;;;;27.27;20.38;;;8.70;99.90;;;;;;4979481;28;20034;-86
2023/11/23 03:32:32;;;;;;;25.75;18.83;;;8.70;99.90;;;;;;4984894;28;20030;-82
2023/11/23 03:34:59;;;;;;;35.00;21.63;;;8.70;99.90;;;;;;4980940;28;20058;-82
2023/11/23 03:37:24;;;;;;;26.85;19.67;;;8.70;99.90;;;;;;4989401;28;20026;-81
2023/11/23 03:39:50;;;;;;;31.70;19.98;;;8.70;99.90;;;;;;4970849;28;20046;-85
2023/11/23 03:42:16;;;;;;;24.85;17.10;;;8.70;99.90;;;;;;4978824;28;20026;-83
2023/11/23 03:44:42;;;;;;;26.75;18.63;;;8.70;99.90;;;;;;4994233;28;20038;-80
2023/11/23 03:47:08;;;;;;;31.52;19.27;;;8.80;99.90;;;;;;4986272;28;20026;-82
2023/11/23 03:49:35;;;;;;;32.20;20.75;;;8.80;99.90;;;;;;4981380;28;20030;-80
2023/11/23 03:52:01;;;;;;;25.85;18.00;;;8.90;99.90;;;;;;4987733;28;20028;-85
2023/11/23 03:54:27;;;;;;;23.00;15.38;;;8.90;99.90;;;;;;4989013;28;20023;-81
2023/11/23 03:56:52;;;;;;;25.10;16.52;;;8.90;99.90;;;;;;4979080;28;20472;-83
2023/11/23 03:59:18;;;;;;;26.85;17.73;;;9.00;99.90;;;;;;4979518;28;20027;-82
2023/11/23 04:01:47;;;;;;;21.75;16.75;;;9.00;99.90;;;;;;4987477;28;20027;-83
2023/11/23 04:04:13;;;;;;;24.60;17.20;;;8.90;99.90;;;;;;4983370;28;20030;-83
2023/11/23 04:06:40;;;;;;;24.13;17.98;;;9.00;99.90;;;;;;4979097;28;20319;-79
2023/11/23 04:09:08;;;;;;;27.85;17.10;;;9.10;99.90;;;;;;4979964;28;20506;-81
2023/11/23 04:11:34;;;;;;;24.83;18.60;;;9.10;99.90;;;;;;4979415;28;20037;-82
2023/11/23 04:14:00;;;;;;;27.42;18.10;;;9.10;99.90;;;;;;4996657;28;20121;-83
2023/11/23 04:16:25;;;;;;;27.08;19.20;;;9.10;99.90;;;;;;4985184;28;20113;-81
2023/11/23 04:18:51;;;;;;;29.65;19.52;;;9.20;99.90;;;;;;4981784;28;20042;-82
2023/11/23 04:21:17;;;;;;;33.67;21.70;;;9.20;99.90;;;;;;4986021;28;20030;-84
2023/11/23 04:23:43;;;;;;;31.90;20.20;;;9.30;99.90;;;;;;4982999;28;20061;-83
2023/11/23 04:26:08;;;;;;;28.25;19.65;;;9.40;99.90;;;;;;4981855;28;20031;-80
2023/11/23 04:28:35;;;;;;;26.08;18.33;;;9.40;99.90;;;;;;4979576;28;20267;-84
2023/11/23 04:31:03;;;;;;;29.52;19.48;;;9.30;99.90;;;;;;4983475;28;20037;-81
2023/11/23 04:33:29;;;;;;;28.33;19.77;;;9.40;99.90;;;;;;4978020;28;20023;-83
2023/11/23 04:35:55;;;;;;;28.35;19.20;;;9.40;99.90;;;;;;4977109;28;20034;-80
2023/11/23 04:38:20;;;;;;;30.98;19.83;;;9.40;99.90;;;;;;4965053;28;20126;-81
2023/11/23 04:40:46;;;;;;;27.33;19.58;;;9.40;99.90;;;;;;4987134;28;20557;-84
2023/11/23 04:43:12;;;;;;;27.13;19.42;;;9.40;99.90;;;;;;4986458;28;20066;-85
2023/11/23 04:45:38;;;;;;;25.20;17.10;;;9.40;99.90;;;;;;4979138;28;20451;-81
2023/11/23 04:48:04;;;;;;;25.75;16.42;;;9.40;99.90;;;;;;4982016;28;20029;-86
2023/11/23 04:50:30;;;;;;;26.60;18.50;;;9.40;99.90;;;;;;4971060;28;20117;-84
2023/11/23 04:52:57;;;;;;;25.15;17.25;;;9.60;99.90;;;;;;4986730;28;20105;-84
2023/11/23 04:55:23;;;;;;;29.20;17.45;;;9.60;99.90;;;;;;4969620;28;20031;-81
2023/11/23 04:57:48;;;;;;;26.27;16.00;;;9.60;99.90;;;;;;4986042;28;20039;-82
2023/11/23 05:00:15;;;;;;;24.48;15.32;;;9.60;99.90;;;;;;4979126;28;20038;-83
2023/11/23 05:02:43;;;;;;;25.88;16.63;;;9.60;99.90;;;;;;4979881;28;20487;-83
2023/11/23 05:05:14;;;;;;;23.85;16.23;;;9.60;99.90;;;;;;4979634;28;20030;-85
2023/11/23 05:07:40;;;;;;;22.52;15.27;;;9.60;99.90;;;;;;4971694;28;20038;-83
2023/11/23 05:10:10;;;;;;;25.17;15.48;;;9.70;99.90;;;;;;4986195;28;20070;-85
2023/11/23 05:12:36;;;;;;;25.60;14.93;;;9.60;99.90;;;;;;4969209;28;20046;-83
2023/11/23 05:15:03;;;;;;;24.60;15.52;;;9.60;99.90;;;;;;4987179;28;20030;-82
2023/11/23 05:17:30;;;;;;;19.00;12.35;;;9.70;99.90;;;;;;4980670;28;20030;-85
2023/11/23 05:19:56;;;;;;;24.42;15.60;;;9.60;99.90;;;;;;4986357;28;20126;-84
2023/11/23 05:22:22;;;;;;;21.63;14.70;;;9.60;99.90;;;;;;4980572;28;20050;-83
2023/11/23 05:24:47;;;;;;;19.55;13.48;;;9.60;99.90;;;;;;4987434;28;20034;-81
2023/11/23 05:27:13;;;;;;;20.10;15.00;;;9.70;99.90;;;;;;4985664;28;20085;-86
2023/11/23 05:29:39;;;;;;;18.02;12.85;;;9.70;99.90;;;;;;4986404;28;20113;-83
2023/11/23 05:32:05;;;;;;;20.90;13.30;;;9.70;99.90;;;;;;4985095;28;20121;-85
2023/11/23 05:34:30;;;;;;;18.67;13.25;;;9.60;99.90;;;;;;4977985;28;20027;-87
2023/11/23 05:36:56;;;;;;;25.65;14.60;;;9.60;99.90;;;;;;4979306;28;20022;-82
2023/11/23 05:39:22;;;;;;;20.40;13.32;;;9.60;99.90;;;;;;4985723;28;20503;-81
2023/11/23 05:41:47;;;;;;;18.90;12.13;;;9.70;99.90;;;;;;4980466;28;20030;-81
2023/11/23 05:44:13;;;;;;;19.65;12.57;;;9.60;99.90;;;;;;4980696;28;20055;-82
2023/11/23 05:46:39;;;;;;;15.90;11.65;;;9.60;99.90;;;;;;4977462;28;20030;-82
2023/11/23 05:49:05;;;;;;;20.77;12.38;;;9.60;99.90;;;;;;4971065;28;20031;-81
2023/11/23 05:51:31;;;;;;;18.90;11.07;;;9.50;99.90;;;;;;4979027;28;20034;-87
2023/11/23 05:53:57;;;;;;;18.88;11.30;;;9.50;99.90;;;;;;4980245;28;20081;-84
2023/11/23 05:56:22;;;;;;;18.08;12.85;;;9.50;99.90;;;;;;4976069;28;20031;-89
2023/11/23 05:58:49;;;;;;;18.17;11.85;;;9.50;99.90;;;;;;4985459;28;20470;-87
2023/11/23 06:01:15;;;;;;;21.38;12.48;;;9.50;99.90;;;;;;4977509;28;20023;-83
2023/11/23 06:03:40;;;;;;;22.30;12.63;;;9.50;99.90;;;;;;4972307;28;20038;-81
2023/11/23 06:06:07;;;;;;;19.67;12.57;;;9.60;99.90;;;;;;4978279;28;20108;-81
2023/11/23 06:08:34;;;;;;;21.45;12.68;;;9.60;99.90;;;;;;4987224;28;20427;-84
2023/11/23 06:11:00;;;;;;;18.83;14.25;;;9.60;99.90;;;;;;4977933;28;20038;-81
2023/11/23 06:13:25;;;;;;;23.40;14.10;;;9.60;99.90;;;;;;4980474;28;20041;-83
2023/11/23 06:15:51;;;;;;;23.23;14.40;;;9.70;99.90;;;;;;4979532;28;20031;-86
2023/11/23 06:18:17;;;;;;;22.15;13.20;;;9.70;99.90;;;;;;4986496;28;20034;-86
2023/11/23 06:20:43;;;;;;;20.10;12.55;;;9.70;99.90;;;;;;4970003;28;20097;-83
2023/11/23 06:23:10;;;;;;;20.80;13.30;;;9.70;99.90;;;;;;4983347;28;20027;-84
2023/11/23 06:25:36;;;;;;;25.73;13.93;;;9.80;99.90;;;;;;4988232;28;20122;-81
2023/11/23 06:28:02;;;;;;;17.25;12.77;;;9.80;99.90;;;;;;4982594;28;20061;-88
2023/11/23 06:30:27;;;;;;;18.65;13.63;;;9.70;99.90;;;;;;4998317;28;20066;-81
2023/11/23 06:32:53;;;;;;;24.92;14.50;;;9.70;99.90;;;;;;4979878;28;20035;-84
2023/11/23 06:35:18;;;;;;;18.55;13.93;;;9.80;99.90;;;;;;4999089;28;20053;-81
2023/11/23 06:37:44;;;;;;;22.42;13.73;;;9.70;99.90;;;;;;4984828;28;20034;-83
2023/11/23 06:40:10;;;;;;;22.20;14.57;;;9.70;99.90;;;;;;4988701;28;20475;-84
2023/11/23 06:42:36;;;;;;;22.13;14.73;;;9.80;99.90;;;;;;4973981;28;20026;-85
2023/11/23 06:45:02;;;;;;;24.83;16.08;;;9.90;99.90;;;;;;4950118;28;20797;-85
2023/11/23 06:47:28;;;;;;;19.92;12.95;;;9.90;99.90;;;;;;4986514;28;21265;-81
2023/11/23 06:49:55;;;;;;;21.63;14.10;;;9.90;99.90;;;;;;4985912;28;20056;-81
2023/11/23 06:52:21;;;;;;;22.77;14.23;;;9.90;99.90;;;;;;4984946;28;20034;-80
2023/11/23 06:54:50;;;;;;;22.70;14.45;;;9.90;99.90;;;;;;4966843;28;20089;-80
2023/11/23 06:57:28;;;;;;;21.92;14.20;;;10.00;99.90;;;;;;4972351;28;20080;-80
2023/11/23 06:59:53;;;;;;;18.60;13.60;;;9.90;99.90;;;;;;4967934;28;20050;-81
2023/11/23 07:02:44;;;;;;;26.02;13.43;;;9.90;99.90;;;;;;4967967;28;20038;-80
2023/11/23 07:05:28;;;;;;;20.30;12.45;;;9.90;99.90;;;;;;4976521;28;20038;-81
2023/11/23 07:07:55;;;;;;;16.50;11.85;;;10.00;99.90;;;;;;4968873;28;20383;-81
2023/11/23 07:10:33;;;;;;;;;;;;;;;;;;;;;
2023/11/23 07:13:00;;;;;;;17.65;11.48;;;10.00;99.90;;;;;;4985056;28;20031;-81
2023/11/23 07:15:26;;;;;;;17.02;11.15;;;10.00;99.90;;;;;;4984944;28;20128;-80
2023/11/23 07:17:59;;;;;;;17.92;10.57;;;10.00;99.90;;;;;;4985107;28;20145;-81
2023/11/23 07:20:28;;;;;;;17.65;11.52;;;10.00;99.90;;;;;;4986884;28;20069;-81
2023/11/23 07:22:54;;;;;;;17.88;11.10;;;10.00;99.90;;;;;;4967896;28;20029;-81
2023/11/23 07:25:20;;;;;;;17.58;11.30;;;10.10;99.90;;;;;;4968517;28;20971;-83
2023/11/23 07:27:45;;;;;;;16.95;10.57;;;10.00;99.90;;;;;;4985751;28;20062;-80
2023/11/23 07:30:11;;;;;;;18.38;10.50;;;10.00;99.90;;;;;;4984527;28;20230;-82
2023/11/23 07:32:37;;;;;;;16.25;9.50;;;10.10;99.90;;;;;;4983070;28;20046;-82
2023/11/23 07:35:04;;;;;;;16.67;10.13;;;10.10;99.90;;;;;;4968697;28;20096;-82
2023/11/23 07:37:30;;;;;;;16.17;8.75;;;10.10;99.90;;;;;;4968531;28;20042;-82
2023/11/23 07:39:56;;;;;;;14.00;9.40;;;10.10;99.90;;;;;;4986087;28;20085;-83
2023/11/23 07:42:23;;;;;;;14.65;8.60;;;10.10;99.90;;;;;;4966745;28;20068;-81
2023/11/23 07:44:50;;;;;;;17.60;9.07;;;10.10;99.90;;;;;;4975018;28;20046;-82
2023/11/23 07:47:16;;;;;;;18.00;8.93;;;10.10;99.90;;;;;;4985213;28;20102;-81
2023/11/23 07:49:42;;;;;;;13.55;8.90;;;10.20;99.90;;;;;;4968893;28;20050;-80
2023/11/23 07:52:08;;;;;;;15.57;9.68;;;10.20;99.90;;;;;;4967112;28;20501;-82
2023/11/23 07:54:34;;;;;;;14.05;9.52;;;10.20;99.90;;;;;;4961479;28;20037;-81
2023/11/23 07:57:01;;;;;;;12.27;8.55;;;10.20;99.90;;;;;;4984336;28;21108;-81
2023/11/23 07:59:27;;;;;;;11.80;8.05;;;10.10;99.90;;;;;;4984980;28;20030;-81
2023/11/23 08:01:55;;;;;;;13.63;9.18;;;10.10;99.90;;;;;;4982872;28;20049;-79
2023/11/23 08:04:24;;;;;;;17.48;8.80;;;10.10;99.90;;;;;;4997908;28;20038;-82
2023/11/23 08:06:51;;;;;;;16.95;8.38;;;10.20;99.90;;;;;;4982829;28;20482;-80
2023/11/23 08:09:20;;;;;;;14.05;8.35;;;10.10;99.90;;;;;;4984987;28;20526;-83
2023/11/23 08:11:52;;;;;;;17.13;9.45;;;10.10;99.90;;;;;;4985074;28;20513;-81
2023/11/23 08:14:20;;;;;;;12.05;8.50;;;10.10;99.90;;;;;;4967321;28;20176;-81
2023/11/23 08:16:46;;;;;;;11.52;8.95;;;10.20;99.90;;;;;;4968603;28;21267;-82
2023/11/23 08:19:14;;;;;;;16.30;8.30;;;10.20;99.90;;;;;;4968679;28;20902;-82
2023/11/23 08:21:41;;;;;;;16.98;9.50;;;10.20;99.90;;;;;;4967567;28;20065;-82
2023/11/23 08:24:08;;;;;;;13.10;8.15;;;10.30;99.90;;;;;;4972621;28;20372;-80
2023/11/23 08:26:34;;;;;;;15.50;9.25;;;10.20;99.90;;;;;;4984619;28;20084;-83
2023/11/23 08:29:00;;;;;;;14.45;8.77;;;10.30;99.90;;;;;;4968652;28;20684;-83
2023/11/23 08:31:29;;;;;;;12.20;8.93;;;10.30;99.90;;;;;;4968560;28;20076;-82
2023/11/23 08:33:58;;;;;;;15.88;8.35;;;10.30;99.90;;;;;;4984022;28;20353;-81
2023/11/23 08:36:24;;;;;;;10.80;8.30;;;10.40;99.90;;;;;;4984214;28;20057;-84
2023/11/23 08:38:50;;;;;;;15.73;8.10;;;10.40;99.90;;;;;;4984588;28;20121;-83
2023/11/23 08:41:24;;;;;;;12.63;7.78;;;10.40;99.90;;;;;;4967843;28;20030;-81
2023/11/23 08:43:50;;;;;;;13.75;8.00;;;10.40;99.90;;;;;;4965077;28;20068;-83
2023/11/23 08:46:15;;;;;;;11.93;8.48;;;10.40;99.90;;;;;;4966497;28;20796;-82
2023/11/23 08:48:41;;;;;;;12.48;8.52;;;10.50;99.90;;;;;;4967777;28;20096;-81
2023/11/23 08:51:07;;;;;;;13.52;8.45;;;10.50;99.90;;;;;;4972417;28;20038;-81
2023/11/23 08:53:33;;;;;;;13.23;7.88;;;10.50;99.90;;;;;;4982739;28;20038;-80
2023/11/23 08:55:59;;;;;;;13.77;8.48;;;10.40;99.90;;;;;;4963864;28;20048;-80
2023/11/23 08:58:25;;;;;;;17.25;9.00;;;10.40;99.90;;;;;;4980922;28;20037;-80
2023/11/23 09:00:51;;;;;;;12.65;8.07;;;10.50;99.90;;;;;;4964052;28;20228;-81
2023/11/23 09:03:17;;;;;;;14.77;9.25;;;10.50;99.90;;;;;;4978711;28;20038;-81
2023/11/23 09:05:44;;;;;;;12.80;8.65;;;10.50;99.90;;;;;;4978514;28;20041;-83
2023/11/23 09:08:11;;;;;;;15.65;8.75;;;10.60;99.90;;;;;;4980895;28;20034;-84
2023/11/23 09:10:38;;;;;;;13.70;8.68;;;10.50;99.90;;;;;;4967232;28;20113;-82
2023/11/23 09:13:05;;;;;;;14.35;8.65;;;10.60;99.90;;;;;;4981148;28;20033;-82
2023/11/23 09:15:32;;;;;;;12.82;8.23;;;10.60;99.90;;;;;;4978194;28;20132;-81
2023/11/23 09:17:59;;;;;;;12.60;8.88;;;10.60;99.90;;;;;;4993132;28;20035;-84
2023/11/23 09:20:32;;;;;;;16.08;9.05;;;10.70;99.90;;;;;;4965641;28;20430;-82
2023/11/23 09:23:02;;;;;;;14.63;9.13;;;10.70;99.90;;;;;;4980617;28;20050;-83
2023/11/23 09:25:29;;;;;;;17.83;8.70;;;10.70;99.90;;;;;;4966368;28;20482;-81
2023/11/23 09:27:55;;;;;;;13.02;8.93;;;10.70;99.90;;;;;;4979501;28;20034;-81
2023/11/23 09:30:21;;;;;;;14.82;8.75;;;10.80;99.90;;;;;;4962885;28;20495;-82
2023/11/23 09:32:46;;;;;;;13.27;8.38;;;10.80;99.90;;;;;;4980450;28;20041;-80
2023/11/23 09:35:12;;;;;;;15.35;9.07;;;10.80;99.90;;;;;;4976864;28;20636;-80
2023/11/23 09:37:38;;;;;;;11.32;8.32;;;10.80;99.90;;;;;;4961338;28;20045;-80
2023/11/23 09:40:08;;;;;;;10.43;7.78;;;10.80;99.90;;;;;;4963317;28;20111;-80
2023/11/23 09:42:38;;;;;;;16.13;8.95;;;10.80;99.90;;;;;;4961972;28;20117;-80
2023/11/23 09:45:07;;;;;;;12.48;8.85;;;10.90;99.90;;;;;;4978353;28;20883;-80
2023/11/23 09:47:35;;;;;;;12.30;9.43;;;10.90;99.90;;;;;;4966522;28;20385;-81
2023/11/23 09:50:01;;;;;;;17.48;9.13;;;10.90;99.90;;;;;;4977935;28;20614;-81
2023/11/23 09:52:33;;;;;;;14.18;8.43;;;10.90;99.90;;;;;;4979556;28;20213;-81
2023/11/23 09:55:02;;;;;;;15.18;7.78;;;10.90;99.90;;;;;;4976612;28;20037;-82
2023/11/23 09:57:28;;;;;;;14.57;7.87;;;11.00;99.90;;;;;;4981301;28;20502;-80
2023/11/23 09:59:55;;;;;;;16.48;7.85;;;11.00;99.90;;;;;;4982561;28;20357;-80
2023/11/23 10:02:30;;;;;;;12.00;7.28;;;11.00;99.90;;;;;;4983654;28;20045;-79
2023/11/23 10:04:58;;;;;;;10.57;6.47;;;11.10;99.90;;;;;;4981515;28;20042;-78
2023/11/23 10:07:26;;;;;;;12.38;6.57;;;11.10;99.90;;;;;;4998589;28;20034;-78
2023/11/23 10:09:54;;;;;;;11.10;7.13;;;11.10;99.90;;;;;;4983405;28;20035;-78
2023/11/23 10:12:21;;;;;;;13.75;7.30;;;11.20;99.90;;;;;;4998521;28;20129;-79
2023/11/23 10:14:47;;;;;;;11.40;7.07;;;11.20;99.90;;;;;;4982320;28;20620;-79
2023/11/23 10:17:13;;;;;;;10.68;5.68;;;11.30;99.90;;;;;;4980964;28;20371;-78
2023/11/23 10:19:39;;;;;;;11.18;7.20;;;11.20;99.90;;;;;;4981147;28;20205;-79
2023/11/23 10:22:04;;;;;;;9.10;6.10;;;11.20;99.90;;;;;;4984451;28;20030;-79
2023/11/23 10:24:30;;;;;;;10.95;5.82;;;11.30;99.90;;;;;;4980853;28;20026;-79
2023/11/23 10:26:57;;;;;;;11.73;7.03;;;11.30;99.90;;;;;;4982013;28;20356;-80
2023/11/23 10:29:29;;;;;;;12.35;6.65;;;11.20;99.90;;;;;;4986354;28;20038;-79
2023/11/23 10:31:59;;;;;;;11.32;7.20;;;11.20;99.90;;;;;;4964417;28;20081;-82
2023/11/23 10:34:26;;;;;;;14.27;7.68;;;11.30;99.90;;;;;;4980206;28;20430;-79
2023/11/23 10:36:52;;;;;;;12.73;6.63;;;11.20;99.90;;;;;;4981776;28;20380;-79
2023/11/23 10:39:20;;;;;;;12.80;7.65;;;11.30;99.90;;;;;;4980738;28;20513;-78
2023/11/23 10:41:48;;;;;;;12.20;7.78;;;11.30;99.90;;;;;;4982039;28;20026;-78
2023/11/23 10:44:14;;;;;;;10.43;7.15;;;11.40;99.90;;;;;;4964191;28;20423;-79
2023/11/23 10:46:42;;;;;;;14.63;7.40;;;11.50;99.90;;;;;;4968068;28;20044;-79
2023/11/23 10:49:08;;;;;;;11.20;7.93;;;11.50;99.90;;;;;;4981903;28;20084;-79
2023/11/23 10:51:35;;;;;;;13.43;7.53;;;11.40;99.90;;;;;;4981498;28;20560;-80
2023/11/23 10:54:01;;;;;;;11.35;6.68;;;11.40;99.90;;;;;;4980806;28;20410;-81
2023/11/23 10:56:29;;;;;;;13.25;6.75;;;11.40;99.90;;;;;;4981157;28;20626;-80
2023/11/23 10:59:00;;;;;;;9.25;5.68;;;11.40;99.90;;;;;;4981056;28;20039;-80
2023/11/23 11:01:27;;;;;;;8.60;4.75;;;11.50;99.90;;;;;;4980524;28;20042;-79
2023/11/23 11:03:54;;;;;;;13.38;4.93;;;11.50;99.90;;;;;;4980481;28;20030;-80
2023/11/23 11:06:21;;;;;;;10.30;5.10;;;11.50;99.90;;;;;;4995752;28;21000;-80
2023/11/23 11:08:48;;;;;;;11.10;5.15;;;11.50;99.90;;;;;;4965493;28;20061;-79
2023/11/23 11:11:20;;;;;;;13.95;5.38;;;11.60;99.90;;;;;;4981247;28;20031;-79
2023/11/23 11:13:46;;;;;;;13.48;5.38;;;11.50;99.90;;;;;;4982784;28;20036;-80
2023/11/23 11:16:14;;;;;;;9.52;5.75;;;11.60;99.90;;;;;;4980318;28;20113;-82
2023/11/23 11:18:50;;;;;;;7.55;4.88;;;11.60;99.90;;;;;;4980936;28;20076;-81
2023/11/23 11:21:18;;;;;;;8.30;4.72;;;11.60;99.90;;;;;;4964525;28;20103;-80
2023/11/23 11:23:53;;;;;;;8.48;4.63;;;11.70;99.90;;;;;;4982919;28;20053;-78
2023/11/23 11:26:25;;;;;;;10.00;5.07;;;11.70;99.90;;;;;;4980856;28;20538;-79
2023/11/23 11:28:55;;;;;;;13.73;5.25;;;11.80;99.90;;;;;;4982094;28;20910;-79
2023/11/23 11:31:39;;;;;;;11.25;5.22;;;11.80;99.90;;;;;;4981163;28;20027;-80
2023/11/23 11:34:12;;;;;;;9.13;4.35;;;11.90;99.90;;;;;;4963732;28;20101;-79
2023/11/23 11:36:38;;;;;;;7.97;3.60;;;11.90;99.90;;;;;;4995188;28;20161;-80
2023/11/23 11:39:05;;;;;;;9.85;3.60;;;11.90;99.90;;;;;;4982298;28;20568;-79
2023/11/23 11:41:34;;;;;;;11.40;4.22;;;11.90;99.90;;;;;;4982343;28;20065;-79
2023/11/23 11:44:01;;;;;;;9.68;3.53;;;11.80;99.90;;;;;;4980844;28;20050;-78
2023/11/23 11:46:29;;;;;;;8.77;2.95;;;11.80;99.90;;;;;;4979965;28;20042;-80
2023/11/23 11:48:58;;;;;;;8.73;3.05;;;11.80;99.90;;;;;;4981615;28;20106;-78
2023/11/23 11:51:25;;;;;;;7.47;3.20;;;11.80;99.90;;;;;;4981311;28;20038;-80
2023/11/23 11:53:53;;;;;;;9.13;3.42;;;11.80;99.90;;;;;;4963892;28;20755;-81
2023/11/23 11:56:19;;;;;;;7.45;3.10;;;11.80;99.90;;;;;;4957398;28;20044;-80
2023/11/23 11:58:47;;;;;;;7.75;2.33;;;11.80;99.90;;;;;;4996978;28;20041;-81
2023/11/23 12:01:13;;;;;;;6.72;2.03;;;11.90;99.90;;;;;;4983682;28;20026;-79
2023/11/23 12:03:39;;;;;;;8.07;2.63;;;11.90;99.90;;;;;;4982190;28;20384;-81
2023/11/23 12:06:05;;;;;;;4.25;1.88;;;11.90;99.90;;;;;;4978017;28;20044;-79
2023/11/23 12:08:34;;;;;;;7.40;1.85;;;11.90;99.90;;;;;;4964541;28;20022;-80
2023/11/23 12:11:01;;;;;;;8.98;2.38;;;11.90;99.90;;;;;;4981475;28;20095;-82
2023/11/23 12:13:29;;;;;;;5.85;1.42;;;11.90;99.90;;;;;;4965017;28;20128;-79
2023/11/23 12:15:56;;;;;;;7.78;1.67;;;11.90;99.90;;;;;;4962003;28;20036;-79
2023/11/23 12:18:32;;;;;;;4.43;1.45;;;11.90;99.90;;;;;;4980880;28;20022;-79
2023/11/23 12:20:58;;;;;;;5.88;1.05;;;11.90;99.90;;;;;;4976759;28;20065;-79
2023/11/23 12:23:24;;;;;;;5.85;0.90;;;11.90;99.90;;;;;;4979989;28;20109;-81
2023/11/23 12:25:53;;;;;;;5.80;1.27;;;11.90;99.90;;;;;;4962694;28;20049;-78
2023/11/23 12:28:20;;;;;;;8.07;1.00;;;12.00;99.90;;;;;;4981077;28;20049;-81
2023/11/23 12:30:46;;;;;;;4.53;0.80;;;12.00;99.90;;;;;;4981215;28;20077;-82
2023/11/23 12:33:12;;;;;;;8.63;1.00;;;12.00;99.90;;;;;;4964800;28;20157;-80
2023/11/23 12:35:41;;;;;;;4.90;0.80;;;12.00;99.90;;;;;;4978034;28;20036;-82
2023/11/23 12:38:07;;;;;;;3.22;1.45;;;12.00;99.90;;;;;;4979327;28;20049;-78